TVF93NR LFPO-GMTT
Flight info
| Callsign | TVF93NR |
|---|---|
| Flight time | N/A |
| Altitude | 35000 |
| Route | AGOPA DCT ARKIP DCT ARMAL DCT ARTAX DCT BEBIX DCT LMG DCT UVELI DCT OSMOB DCT VAVIX DCT NETUK N857 SVL N10 LINTO DCT NOLRO |
| Aircraft | B738/M-SDE2E3FGHIRWXY/LB1 |
Departure
| Time | N/A |
|---|---|
| Airport | Paris-Orly Airport (LFPO) |
Arrival
| Time | 2026-04-16 16:57 |
|---|---|
| Airport | Tangier Ibn Battuta Airport (GMTT) |
| Time | Latitude | Longitude | Altitude | Speed | Heading |
|---|---|---|---|---|---|
| 2026-04-16 14:50 | 47.90870 | 2.02006 | 21592 ft | 435 kts | 181° |
| 2026-04-16 14:50 | 47.87851 | 2.02187 | 22006 ft | 438 kts | 181° |
| 2026-04-16 14:50 | 47.84795 | 2.02364 | 22407 ft | 441 kts | 181° |
| 2026-04-16 14:50 | 47.81719 | 2.02541 | 22795 ft | 444 kts | 181° |
| 2026-04-16 14:51 | 47.78620 | 2.02718 | 23163 ft | 447 kts | 181° |
| 2026-04-16 14:51 | 47.75502 | 2.02897 | 23522 ft | 450 kts | 181° |
| 2026-04-16 14:51 | 47.72366 | 2.03077 | 23886 ft | 452 kts | 181° |
| 2026-04-16 14:51 | 47.69211 | 2.03259 | 24213 ft | 454 kts | 181° |
| 2026-04-16 14:53 | 47.46820 | 2.04560 | 26445 ft | 466 kts | 181° |
| 2026-04-16 14:53 | 47.43575 | 2.04749 | 26739 ft | 468 kts | 181° |
| 2026-04-16 14:54 | 47.40351 | 2.04937 | 27017 ft | 470 kts | 181° |
| 2026-04-16 14:54 | 47.37035 | 2.05129 | 27304 ft | 471 kts | 181° |
| 2026-04-16 14:54 | 47.33802 | 2.05198 | 27549 ft | 471 kts | 186° |
| 2026-04-16 14:54 | 47.30521 | 2.04599 | 27807 ft | 469 kts | 193° |
| 2026-04-16 14:55 | 47.27348 | 2.03762 | 28086 ft | 470 kts | 194° |
| 2026-04-16 14:55 | 47.24127 | 2.02885 | 28361 ft | 471 kts | 194° |
| 2026-04-16 14:55 | 47.20909 | 2.02016 | 28696 ft | 471 kts | 193° |
| 2026-04-16 14:55 | 47.17690 | 2.01164 | 29118 ft | 469 kts | 193° |
| 2026-04-16 14:56 | 47.14486 | 2.00335 | 29527 ft | 467 kts | 193° |
| 2026-04-16 14:56 | 47.11290 | 1.99520 | 29865 ft | 467 kts | 193° |
| 2026-04-16 14:56 | 47.08089 | 1.98711 | 30197 ft | 466 kts | 193° |
| 2026-04-16 14:56 | 47.04896 | 1.97908 | 30542 ft | 465 kts | 193° |
| 2026-04-16 14:57 | 47.01711 | 1.97110 | 30869 ft | 463 kts | 193° |
| 2026-04-16 14:57 | 46.98538 | 1.96314 | 31173 ft | 463 kts | 193° |
| 2026-04-16 14:57 | 46.95363 | 1.95519 | 31447 ft | 462 kts | 193° |
| 2026-04-16 14:57 | 46.92196 | 1.94725 | 31696 ft | 462 kts | 193° |
| 2026-04-16 14:58 | 46.89025 | 1.93932 | 31969 ft | 462 kts | 193° |
| 2026-04-16 14:58 | 46.82709 | 1.92354 | 32563 ft | 459 kts | 194° |
| 2026-04-16 14:58 | 46.79561 | 1.91569 | 32832 ft | 459 kts | 194° |
| 2026-04-16 14:59 | 46.76409 | 1.90784 | 33096 ft | 459 kts | 194° |
| 2026-04-16 14:59 | 46.73264 | 1.90001 | 33377 ft | 458 kts | 194° |
| 2026-04-16 14:59 | 46.70129 | 1.89222 | 33652 ft | 457 kts | 194° |
| 2026-04-16 14:59 | 46.66996 | 1.88444 | 33921 ft | 456 kts | 194° |
| 2026-04-16 15:00 | 46.63867 | 1.87669 | 34181 ft | 455 kts | 194° |
| 2026-04-16 15:00 | 46.60751 | 1.86897 | 34432 ft | 454 kts | 194° |
| 2026-04-16 15:00 | 46.57628 | 1.86124 | 34628 ft | 454 kts | 194° |
| 2026-04-16 15:00 | 46.54516 | 1.85355 | 34808 ft | 454 kts | 194° |
| 2026-04-16 15:01 | 46.51395 | 1.84585 | 34963 ft | 455 kts | 194° |
| 2026-04-16 15:01 | 46.48272 | 1.83815 | 35180 ft | 454 kts | 194° |
| 2026-04-16 15:01 | 46.45155 | 1.83047 | 35229 ft | 457 kts | 194° |
| 2026-04-16 15:02 | 46.38937 | 1.81519 | 35234 ft | 454 kts | 194° |
| 2026-04-16 15:02 | 46.32732 | 1.79998 | 35229 ft | 451 kts | 194° |
| 2026-04-16 15:03 | 46.26720 | 1.77852 | 35237 ft | 439 kts | 208° |
| 2026-04-16 15:03 | 46.21600 | 1.73273 | 35241 ft | 432 kts | 225° |
| 2026-04-16 15:04 | 46.17048 | 1.67501 | 35249 ft | 438 kts | 225° |
| 2026-04-16 15:04 | 46.12448 | 1.61697 | 35243 ft | 440 kts | 225° |
| 2026-04-16 15:05 | 46.07798 | 1.55918 | 35247 ft | 442 kts | 224° |
| 2026-04-16 15:05 | 46.03136 | 1.50155 | 35234 ft | 442 kts | 224° |
| 2026-04-16 15:06 | 45.98483 | 1.44415 | 35237 ft | 440 kts | 224° |
| 2026-04-16 15:06 | 45.94333 | 1.38075 | 35236 ft | 432 kts | 238° |
| 2026-04-16 15:07 | 45.91483 | 1.30565 | 35239 ft | 427 kts | 246° |
| 2026-04-16 15:07 | 45.88836 | 1.22932 | 35242 ft | 427 kts | 245° |
| 2026-04-16 15:08 | 45.86151 | 1.15343 | 35245 ft | 426 kts | 245° |
| 2026-04-16 15:08 | 45.83452 | 1.07780 | 35233 ft | 426 kts | 245° |
| 2026-04-16 15:09 | 45.80043 | 1.00809 | 35241 ft | 430 kts | 229° |
| 2026-04-16 15:09 | 45.75509 | 0.95149 | 35236 ft | 433 kts | 223° |
| 2026-04-16 15:10 | 45.70850 | 0.89677 | 35230 ft | 433 kts | 223° |
| 2026-04-16 15:10 | 45.66202 | 0.84181 | 35227 ft | 434 kts | 223° |
| 2026-04-16 15:11 | 45.61563 | 0.78666 | 35227 ft | 434 kts | 223° |
| 2026-04-16 15:11 | 45.56918 | 0.73145 | 35208 ft | 434 kts | 223° |
| 2026-04-16 15:12 | 45.52276 | 0.67637 | 35214 ft | 434 kts | 223° |
| 2026-04-16 15:12 | 45.47626 | 0.62133 | 35211 ft | 434 kts | 223° |
| 2026-04-16 15:13 | 45.42976 | 0.56643 | 35211 ft | 434 kts | 223° |
| 2026-04-16 15:13 | 45.38325 | 0.51164 | 35196 ft | 434 kts | 223° |
| 2026-04-16 15:14 | 45.33704 | 0.45731 | 35209 ft | 434 kts | 223° |
| 2026-04-16 15:14 | 45.29052 | 0.40274 | 35200 ft | 434 kts | 223° |
| 2026-04-16 15:15 | 45.24399 | 0.34828 | 35207 ft | 433 kts | 222° |
| 2026-04-16 15:15 | 45.19746 | 0.29393 | 35200 ft | 433 kts | 222° |
| 2026-04-16 15:16 | 45.15099 | 0.23977 | 35189 ft | 433 kts | 222° |
| 2026-04-16 15:16 | 45.10450 | 0.18570 | 35196 ft | 432 kts | 222° |
| 2026-04-16 15:17 | 45.05796 | 0.13167 | 35205 ft | 432 kts | 222° |
| 2026-04-16 15:17 | 45.01142 | 0.07781 | 35199 ft | 433 kts | 222° |
| 2026-04-16 15:18 | 44.96481 | 0.02399 | 35193 ft | 433 kts | 222° |
| 2026-04-16 15:18 | 44.91810 | -0.02986 | 35212 ft | 433 kts | 222° |
| 2026-04-16 15:19 | 44.87142 | -0.08357 | 35204 ft | 433 kts | 222° |
| 2026-04-16 15:19 | 44.82461 | -0.13733 | 35198 ft | 434 kts | 221° |
| 2026-04-16 15:20 | 44.77784 | -0.19091 | 35200 ft | 434 kts | 221° |
| 2026-04-16 15:20 | 44.73103 | -0.24445 | 35199 ft | 433 kts | 221° |
| 2026-04-16 15:21 | 44.68424 | -0.29785 | 35193 ft | 433 kts | 221° |
| 2026-04-16 15:21 | 44.63706 | -0.35042 | 35195 ft | 434 kts | 218° |
| 2026-04-16 15:22 | 44.58728 | -0.39868 | 35191 ft | 435 kts | 217° |
| 2026-04-16 15:22 | 44.54560 | -0.43812 | 35195 ft | 434 kts | 217° |
| 2026-04-16 15:23 | 44.48760 | -0.49347 | 35190 ft | 434 kts | 217° |
| 2026-04-16 15:23 | 44.43774 | -0.54129 | 35185 ft | 434 kts | 217° |
| 2026-04-16 15:24 | 44.38791 | -0.58905 | 35183 ft | 434 kts | 217° |
| 2026-04-16 15:24 | 44.34611 | -0.62901 | 35192 ft | 435 kts | 217° |
| 2026-04-16 15:25 | 44.29610 | -0.67673 | 35184 ft | 436 kts | 217° |
| 2026-04-16 15:25 | 44.24573 | -0.72417 | 35186 ft | 437 kts | 216° |
| 2026-04-16 15:26 | 44.19487 | -0.77081 | 35176 ft | 438 kts | 216° |
| 2026-04-16 15:26 | 44.14394 | -0.81737 | 35167 ft | 438 kts | 216° |
| 2026-04-16 15:27 | 44.09336 | -0.86365 | 35170 ft | 438 kts | 216° |
| 2026-04-16 15:27 | 44.04250 | -0.91017 | 35166 ft | 437 kts | 216° |
| 2026-04-16 15:28 | 43.99172 | -0.95654 | 35166 ft | 437 kts | 216° |
| 2026-04-16 15:28 | 43.94095 | -1.00280 | 35155 ft | 436 kts | 216° |
| 2026-04-16 15:29 | 43.89012 | -1.04902 | 35163 ft | 436 kts | 216° |
| 2026-04-16 15:29 | 43.83936 | -1.09508 | 35161 ft | 436 kts | 216° |
| 2026-04-16 15:30 | 43.78853 | -1.14111 | 35156 ft | 436 kts | 216° |
| 2026-04-16 15:30 | 43.73772 | -1.18703 | 35161 ft | 436 kts | 216° |
| 2026-04-16 15:31 | 43.68681 | -1.23294 | 35159 ft | 437 kts | 216° |
| 2026-04-16 15:31 | 43.63591 | -1.27875 | 35156 ft | 437 kts | 216° |
| 2026-04-16 15:32 | 43.58488 | -1.32458 | 35152 ft | 438 kts | 216° |
| 2026-04-16 15:32 | 43.53414 | -1.37005 | 35158 ft | 438 kts | 216° |
| 2026-04-16 15:33 | 43.48300 | -1.41580 | 35157 ft | 439 kts | 216° |
| 2026-04-16 15:33 | 43.43177 | -1.46153 | 35158 ft | 439 kts | 216° |
| 2026-04-16 15:34 | 43.38047 | -1.50724 | 35156 ft | 439 kts | 216° |
| 2026-04-16 15:34 | 43.32910 | -1.55292 | 35158 ft | 440 kts | 216° |
| 2026-04-16 15:35 | 43.27712 | -1.59758 | 35149 ft | 444 kts | 210° |
| 2026-04-16 15:35 | 43.21813 | -1.62407 | 35154 ft | 453 kts | 192° |
| 2026-04-16 15:36 | 43.15528 | -1.63413 | 35152 ft | 455 kts | 189° |
| 2026-04-16 15:36 | 43.09236 | -1.64355 | 35156 ft | 456 kts | 190° |
| 2026-04-16 15:37 | 43.02927 | -1.65362 | 35155 ft | 456 kts | 190° |
| 2026-04-16 15:37 | 42.96615 | -1.66401 | 35127 ft | 457 kts | 190° |
| 2026-04-16 15:38 | 42.90289 | -1.67442 | 35136 ft | 458 kts | 190° |
| 2026-04-16 15:38 | 42.83954 | -1.68479 | 35131 ft | 460 kts | 190° |
| 2026-04-16 15:39 | 42.77598 | -1.69516 | 35132 ft | 460 kts | 190° |
| 2026-04-16 15:39 | 42.71412 | -1.71436 | 35132 ft | 453 kts | 206° |
| 2026-04-16 15:40 | 42.65787 | -1.75197 | 35131 ft | 450 kts | 210° |
| 2026-04-16 15:40 | 42.60196 | -1.79050 | 35126 ft | 450 kts | 210° |
| 2026-04-16 15:41 | 42.54584 | -1.82833 | 35116 ft | 450 kts | 210° |
| 2026-04-16 15:41 | 42.48961 | -1.86589 | 35119 ft | 450 kts | 210° |
| 2026-04-16 15:42 | 42.43379 | -1.90312 | 35121 ft | 450 kts | 210° |
| 2026-04-16 15:42 | 42.37759 | -1.94060 | 35119 ft | 451 kts | 210° |
| 2026-04-16 15:43 | 42.32124 | -1.97815 | 35124 ft | 453 kts | 210° |
| 2026-04-16 15:43 | 42.26463 | -2.01589 | 35135 ft | 455 kts | 210° |
| 2026-04-16 15:44 | 42.20770 | -2.05368 | 35131 ft | 457 kts | 210° |
| 2026-04-16 15:44 | 42.15044 | -2.09159 | 35124 ft | 459 kts | 210° |
| 2026-04-16 15:45 | 42.09296 | -2.12954 | 35132 ft | 461 kts | 210° |
| 2026-04-16 15:45 | 42.03528 | -2.16756 | 35128 ft | 462 kts | 210° |
| 2026-04-16 15:46 | 41.97759 | -2.20551 | 35136 ft | 462 kts | 210° |
| 2026-04-16 15:46 | 41.91975 | -2.24349 | 35130 ft | 462 kts | 210° |
| 2026-04-16 15:47 | 41.86203 | -2.28133 | 35133 ft | 462 kts | 210° |
| 2026-04-16 15:47 | 41.80431 | -2.31908 | 35123 ft | 461 kts | 210° |
| 2026-04-16 15:48 | 41.74667 | -2.35671 | 35119 ft | 461 kts | 210° |
| 2026-04-16 15:48 | 41.68896 | -2.39431 | 35130 ft | 461 kts | 210° |
| 2026-04-16 15:49 | 41.63123 | -2.43186 | 35130 ft | 461 kts | 210° |
| 2026-04-16 15:49 | 41.57344 | -2.46937 | 35127 ft | 462 kts | 210° |
| 2026-04-16 15:50 | 41.51562 | -2.50682 | 35118 ft | 462 kts | 210° |
| 2026-04-16 15:50 | 41.45766 | -2.54420 | 35129 ft | 463 kts | 209° |
| 2026-04-16 15:51 | 41.39964 | -2.58147 | 35133 ft | 463 kts | 209° |
| 2026-04-16 15:51 | 41.34188 | -2.61853 | 35136 ft | 464 kts | 209° |
| 2026-04-16 15:52 | 41.28663 | -2.66181 | 35141 ft | 459 kts | 218° |
| 2026-04-16 15:52 | 41.23444 | -2.71087 | 35133 ft | 460 kts | 219° |
| 2026-04-16 15:53 | 41.18224 | -2.75996 | 35131 ft | 460 kts | 219° |
| 2026-04-16 15:53 | 41.12966 | -2.80855 | 35139 ft | 460 kts | 218° |
| 2026-04-16 15:54 | 41.07699 | -2.85678 | 35131 ft | 460 kts | 218° |
| 2026-04-16 15:54 | 41.02416 | -2.90496 | 35143 ft | 460 kts | 218° |
| 2026-04-16 15:55 | 40.97141 | -2.95300 | 35138 ft | 460 kts | 218° |
| 2026-04-16 15:55 | 40.91870 | -3.00093 | 35144 ft | 460 kts | 218° |
| 2026-04-16 15:56 | 40.86590 | -3.04886 | 35135 ft | 460 kts | 218° |
| 2026-04-16 15:56 | 40.81315 | -3.09665 | 35137 ft | 459 kts | 218° |
| 2026-04-16 15:57 | 40.76041 | -3.14432 | 35135 ft | 459 kts | 218° |
| 2026-04-16 15:57 | 40.70809 | -3.19153 | 35140 ft | 458 kts | 218° |
| 2026-04-16 15:58 | 40.65514 | -3.23922 | 35144 ft | 458 kts | 218° |
| 2026-04-16 15:58 | 40.60285 | -3.28622 | 35150 ft | 457 kts | 218° |
| 2026-04-16 15:59 | 40.52398 | -3.35694 | 35157 ft | 457 kts | 218° |
| 2026-04-16 15:59 | 40.47139 | -3.40398 | 35158 ft | 457 kts | 218° |
| 2026-04-16 16:00 | 40.41889 | -3.45085 | 35152 ft | 457 kts | 217° |
| 2026-04-16 16:00 | 40.36630 | -3.49771 | 35152 ft | 456 kts | 217° |
| 2026-04-16 16:01 | 40.31383 | -3.54438 | 35157 ft | 456 kts | 217° |
| 2026-04-16 16:01 | 40.26129 | -3.59102 | 35153 ft | 456 kts | 217° |
| 2026-04-16 16:02 | 40.20880 | -3.63754 | 35158 ft | 456 kts | 217° |
| 2026-04-16 16:02 | 40.15626 | -3.68402 | 35149 ft | 455 kts | 217° |
| 2026-04-16 16:03 | 40.10376 | -3.73036 | 35147 ft | 455 kts | 217° |
| 2026-04-16 16:03 | 40.05124 | -3.77658 | 35132 ft | 455 kts | 217° |
| 2026-04-16 16:04 | 39.99870 | -3.82274 | 35130 ft | 455 kts | 217° |
| 2026-04-16 16:04 | 39.94619 | -3.86880 | 35114 ft | 455 kts | 217° |
| 2026-04-16 16:05 | 39.89359 | -3.91486 | 35128 ft | 455 kts | 217° |
| 2026-04-16 16:05 | 39.84101 | -3.96083 | 35131 ft | 455 kts | 217° |
| 2026-04-16 16:06 | 39.78838 | -4.00676 | 35130 ft | 455 kts | 217° |
| 2026-04-16 16:06 | 39.73612 | -4.05227 | 35140 ft | 455 kts | 217° |
| 2026-04-16 16:07 | 39.68350 | -4.09808 | 35123 ft | 455 kts | 217° |
| 2026-04-16 16:07 | 39.63088 | -4.14387 | 35141 ft | 455 kts | 217° |
| 2026-04-16 16:08 | 39.58681 | -4.18218 | 35131 ft | 455 kts | 217° |
| 2026-04-16 16:08 | 39.53458 | -4.22749 | 35127 ft | 455 kts | 217° |
| 2026-04-16 16:09 | 39.48188 | -4.27313 | 35121 ft | 455 kts | 217° |
| 2026-04-16 16:09 | 39.42934 | -4.31854 | 35131 ft | 454 kts | 217° |
| 2026-04-16 16:10 | 39.37679 | -4.36389 | 35137 ft | 454 kts | 216° |
| 2026-04-16 16:10 | 39.32420 | -4.40918 | 35146 ft | 454 kts | 216° |
| 2026-04-16 16:11 | 39.27166 | -4.45436 | 35127 ft | 454 kts | 216° |
| 2026-04-16 16:11 | 39.21907 | -4.49949 | 35142 ft | 454 kts | 216° |
| 2026-04-16 16:12 | 39.16646 | -4.54440 | 35135 ft | 454 kts | 216° |
| 2026-04-16 16:12 | 39.11379 | -4.58926 | 35128 ft | 454 kts | 216° |
| 2026-04-16 16:13 | 39.06111 | -4.63408 | 35125 ft | 454 kts | 216° |
| 2026-04-16 16:13 | 39.00838 | -4.67887 | 35126 ft | 454 kts | 216° |
| 2026-04-16 16:14 | 38.95609 | -4.72318 | 35121 ft | 453 kts | 216° |
| 2026-04-16 16:14 | 38.90342 | -4.76774 | 35121 ft | 453 kts | 216° |
| 2026-04-16 16:15 | 38.85084 | -4.81217 | 35114 ft | 453 kts | 216° |
| 2026-04-16 16:15 | 38.79824 | -4.85654 | 35116 ft | 452 kts | 216° |
| 2026-04-16 16:16 | 38.74564 | -4.90083 | 35105 ft | 452 kts | 216° |
| 2026-04-16 16:16 | 38.69310 | -4.94499 | 35110 ft | 451 kts | 216° |
| 2026-04-16 16:17 | 38.64060 | -4.98905 | 35122 ft | 451 kts | 216° |
| 2026-04-16 16:17 | 38.58806 | -5.03307 | 35101 ft | 451 kts | 215° |
| 2026-04-16 16:18 | 38.53563 | -5.07691 | 35100 ft | 450 kts | 216° |
| 2026-04-16 16:18 | 38.48206 | -5.11806 | 35113 ft | 450 kts | 209° |
| 2026-04-16 16:19 | 38.42561 | -5.15282 | 35112 ft | 451 kts | 207° |
| 2026-04-16 16:19 | 38.36891 | -5.18691 | 35104 ft | 450 kts | 208° |
| 2026-04-16 16:20 | 38.31278 | -5.22123 | 35107 ft | 450 kts | 208° |
| 2026-04-16 16:20 | 38.25603 | -5.25627 | 35112 ft | 450 kts | 208° |
| 2026-04-16 16:21 | 38.20009 | -5.29087 | 35107 ft | 450 kts | 208° |
| 2026-04-16 16:21 | 38.14369 | -5.32568 | 35108 ft | 451 kts | 208° |
| 2026-04-16 16:22 | 38.08725 | -5.36043 | 35113 ft | 451 kts | 208° |
| 2026-04-16 16:22 | 38.03078 | -5.39514 | 35104 ft | 450 kts | 207° |
| 2026-04-16 16:23 | 37.97436 | -5.42975 | 35108 ft | 450 kts | 207° |
| 2026-04-16 16:23 | 37.91799 | -5.46428 | 35107 ft | 450 kts | 207° |
| 2026-04-16 16:24 | 37.86163 | -5.49875 | 35101 ft | 450 kts | 207° |
| 2026-04-16 16:24 | 37.80527 | -5.53315 | 35093 ft | 450 kts | 207° |
| 2026-04-16 16:25 | 37.74880 | -5.56757 | 35095 ft | 449 kts | 207° |
| 2026-04-16 16:25 | 37.69249 | -5.60182 | 35100 ft | 449 kts | 207° |
| 2026-04-16 16:26 | 37.63609 | -5.63608 | 35095 ft | 450 kts | 207° |
| 2026-04-16 16:26 | 37.58006 | -5.67005 | 35092 ft | 450 kts | 207° |
| 2026-04-16 16:27 | 37.52370 | -5.70418 | 35098 ft | 450 kts | 207° |
| 2026-04-16 16:27 | 37.46730 | -5.73827 | 35102 ft | 449 kts | 207° |
| 2026-04-16 16:28 | 37.40896 | -5.76643 | 35097 ft | 451 kts | 193° |
| 2026-04-16 16:28 | 37.34673 | -5.77807 | 35094 ft | 452 kts | 189° |
| 2026-04-16 16:29 | 37.31525 | -5.78336 | 34569 ft | 460 kts | 189° |
| 2026-04-16 16:29 | 37.28361 | -5.78874 | 33974 ft | 458 kts | 189° |
| 2026-04-16 16:29 | 37.25199 | -5.79424 | 33239 ft | 458 kts | 189° |
| 2026-04-16 16:29 | 37.22046 | -5.79983 | 32543 ft | 459 kts | 189° |
| 2026-04-16 16:30 | 37.18886 | -5.80551 | 31846 ft | 459 kts | 189° |
| 2026-04-16 16:30 | 37.15724 | -5.81124 | 31146 ft | 460 kts | 189° |
| 2026-04-16 16:30 | 37.12552 | -5.81701 | 30477 ft | 460 kts | 189° |
| 2026-04-16 16:30 | 37.09400 | -5.82274 | 29957 ft | 456 kts | 189° |
| 2026-04-16 16:31 | 37.06279 | -5.82840 | 29372 ft | 452 kts | 189° |
| 2026-04-16 16:31 | 37.03187 | -5.83400 | 28840 ft | 446 kts | 189° |
| 2026-04-16 16:31 | 37.00124 | -5.83954 | 28314 ft | 442 kts | 189° |
| 2026-04-16 16:31 | 36.97098 | -5.84500 | 27795 ft | 437 kts | 189° |
| 2026-04-16 16:32 | 36.94136 | -5.85035 | 27281 ft | 433 kts | 189° |
| 2026-04-16 16:32 | 36.91165 | -5.85571 | 26780 ft | 430 kts | 189° |
| 2026-04-16 16:32 | 36.88216 | -5.86103 | 26280 ft | 426 kts | 189° |
| 2026-04-16 16:32 | 36.85294 | -5.86630 | 25787 ft | 423 kts | 189° |
| 2026-04-16 16:33 | 36.82393 | -5.87152 | 25290 ft | 420 kts | 188° |
| 2026-04-16 16:33 | 36.79513 | -5.87670 | 24806 ft | 417 kts | 189° |
| 2026-04-16 16:33 | 36.76650 | -5.88185 | 24312 ft | 415 kts | 189° |
| 2026-04-16 16:33 | 36.74728 | -5.88530 | 23975 ft | 414 kts | 189° |
| 2026-04-16 16:34 | 36.70965 | -5.89206 | 23252 ft | 411 kts | 188° |
| 2026-04-16 16:34 | 36.68142 | -5.89712 | 22724 ft | 408 kts | 188° |
| 2026-04-16 16:34 | 36.65344 | -5.90214 | 22221 ft | 404 kts | 188° |
| 2026-04-16 16:34 | 36.62568 | -5.90711 | 21729 ft | 401 kts | 188° |
| 2026-04-16 16:35 | 36.59817 | -5.91203 | 21248 ft | 397 kts | 188° |
| 2026-04-16 16:35 | 36.57094 | -5.91690 | 20765 ft | 394 kts | 188° |
| 2026-04-16 16:35 | 36.54389 | -5.92173 | 20311 ft | 391 kts | 188° |
| 2026-04-16 16:35 | 36.51703 | -5.92653 | 19847 ft | 388 kts | 188° |
| 2026-04-16 16:36 | 36.49040 | -5.93128 | 19386 ft | 386 kts | 188° |
| 2026-04-16 16:36 | 36.46388 | -5.93601 | 18929 ft | 383 kts | 188° |
| 2026-04-16 16:36 | 36.43755 | -5.94070 | 18464 ft | 381 kts | 188° |
| 2026-04-16 16:36 | 36.41138 | -5.94537 | 17942 ft | 379 kts | 188° |
| 2026-04-16 16:37 | 36.38527 | -5.95001 | 17442 ft | 377 kts | 188° |
| 2026-04-16 16:37 | 36.35947 | -5.95460 | 16966 ft | 374 kts | 188° |
| 2026-04-16 16:37 | 36.33377 | -5.95917 | 16508 ft | 371 kts | 188° |
| 2026-04-16 16:37 | 36.30833 | -5.96370 | 16055 ft | 369 kts | 188° |
| 2026-04-16 16:38 | 36.28295 | -5.96820 | 15598 ft | 366 kts | 188° |
| 2026-04-16 16:38 | 36.25776 | -5.97267 | 15151 ft | 364 kts | 188° |
| 2026-04-16 16:38 | 36.23268 | -5.97623 | 14697 ft | 363 kts | 182° |
| 2026-04-16 16:38 | 36.20739 | -5.97575 | 14210 ft | 363 kts | 177° |
| 2026-04-16 16:39 | 36.18223 | -5.97412 | 13730 ft | 362 kts | 176° |
| 2026-04-16 16:39 | 36.15746 | -5.97235 | 13252 ft | 360 kts | 176° |
| 2026-04-16 16:39 | 36.13252 | -5.97065 | 12775 ft | 358 kts | 177° |
| 2026-04-16 16:39 | 36.10774 | -5.96908 | 12333 ft | 356 kts | 177° |
| 2026-04-16 16:40 | 36.08307 | -5.96761 | 11881 ft | 354 kts | 177° |
| 2026-04-16 16:40 | 36.05857 | -5.96623 | 11439 ft | 352 kts | 177° |
| 2026-04-16 16:40 | 36.03417 | -5.96488 | 11036 ft | 349 kts | 177° |
| 2026-04-16 16:40 | 36.01033 | -5.96358 | 10893 ft | 338 kts | 177° |
| 2026-04-16 16:41 | 35.98714 | -5.96232 | 10691 ft | 330 kts | 177° |
| 2026-04-16 16:41 | 35.96448 | -5.96110 | 10521 ft | 321 kts | 177° |
| 2026-04-16 16:41 | 35.94246 | -5.95991 | 10377 ft | 312 kts | 177° |
| 2026-04-16 16:41 | 35.92100 | -5.95875 | 10246 ft | 304 kts | 177° |
| 2026-04-16 16:42 | 35.90013 | -5.95762 | 10096 ft | 296 kts | 177° |
| 2026-04-16 16:42 | 35.87988 | -5.95653 | 9945 ft | 289 kts | 177° |
| 2026-04-16 16:42 | 35.85980 | -5.95545 | 9641 ft | 287 kts | 177° |
| 2026-04-16 16:42 | 35.83988 | -5.95437 | 9367 ft | 285 kts | 177° |
| 2026-04-16 16:43 | 35.82035 | -5.95098 | 9070 ft | 283 kts | 165° |
| 2026-04-16 16:43 | 35.80158 | -5.94408 | 8806 ft | 281 kts | 162° |
| 2026-04-16 16:43 | 35.78298 | -5.93698 | 8526 ft | 279 kts | 162° |
| 2026-04-16 16:43 | 35.76442 | -5.93015 | 8252 ft | 278 kts | 163° |
| 2026-04-16 16:44 | 35.74604 | -5.92306 | 7963 ft | 276 kts | 155° |
| 2026-04-16 16:44 | 35.73116 | -5.90890 | 7677 ft | 272 kts | 127° |
| 2026-04-16 16:44 | 35.72183 | -5.88885 | 7437 ft | 269 kts | 115° |
| 2026-04-16 16:44 | 35.71414 | -5.86826 | 7161 ft | 268 kts | 114° |
| 2026-04-16 16:45 | 35.70640 | -5.84712 | 6876 ft | 267 kts | 114° |
| 2026-04-16 16:45 | 35.69884 | -5.82661 | 6605 ft | 266 kts | 115° |
| 2026-04-16 16:45 | 35.69104 | -5.80563 | 6329 ft | 266 kts | 115° |
| 2026-04-16 16:45 | 35.68341 | -5.78528 | 6028 ft | 266 kts | 115° |
| 2026-04-16 16:46 | 35.67575 | -5.76495 | 5893 ft | 258 kts | 115° |
| 2026-04-16 16:46 | 35.66827 | -5.74519 | 5756 ft | 251 kts | 115° |
| 2026-04-16 16:46 | 35.66098 | -5.72600 | 5641 ft | 243 kts | 115° |
| 2026-04-16 16:46 | 35.65396 | -5.70754 | 5537 ft | 234 kts | 115° |
| 2026-04-16 16:47 | 35.64716 | -5.68964 | 5400 ft | 230 kts | 115° |
| 2026-04-16 16:47 | 35.64302 | -5.67086 | 5137 ft | 228 kts | 89° |
| 2026-04-16 16:47 | 35.64708 | -5.65257 | 4974 ft | 222 kts | 62° |
| 2026-04-16 16:47 | 35.65737 | -5.63865 | 4725 ft | 221 kts | 37° |
| 2026-04-16 16:48 | 35.67164 | -5.63190 | 4489 ft | 223 kts | 10° |
| 2026-04-16 16:48 | 35.68693 | -5.63435 | 4240 ft | 223 kts | 340° |
| 2026-04-16 16:48 | 35.69951 | -5.64546 | 4029 ft | 224 kts | 307° |
| 2026-04-16 16:48 | 35.70506 | -5.66297 | 3856 ft | 221 kts | 281° |
| 2026-04-16 16:49 | 35.70843 | -5.68148 | 3575 ft | 221 kts | 282° |
| 2026-04-16 16:49 | 35.71119 | -5.70006 | 3300 ft | 221 kts | 277° |
| 2026-04-16 16:49 | 35.71311 | -5.71885 | 3016 ft | 220 kts | 276° |
| 2026-04-16 16:49 | 35.71473 | -5.73751 | 2732 ft | 216 kts | 275° |
| 2026-04-16 16:50 | 35.71633 | -5.75583 | 2460 ft | 216 kts | 276° |
| 2026-04-16 16:50 | 35.71799 | -5.77446 | 2028 ft | 221 kts | 276° |
| 2026-04-16 16:50 | 35.71973 | -5.79319 | 1775 ft | 220 kts | 275° |
| 2026-04-16 16:50 | 35.72144 | -5.81178 | 1600 ft | 214 kts | 277° |
| 2026-04-16 16:51 | 35.72109 | -5.82900 | 1564 ft | 199 kts | 244° |
| 2026-04-16 16:51 | 35.71428 | -5.84318 | 1610 ft | 188 kts | 233° |
| 2026-04-16 16:51 | 35.70722 | -5.85661 | 1619 ft | 187 kts | 233° |
| 2026-04-16 16:51 | 35.70098 | -5.87100 | 1587 ft | 199 kts | 256° |
| 2026-04-16 16:52 | 35.70170 | -5.88785 | 1624 ft | 202 kts | 277° |
| 2026-04-16 16:52 | 35.70384 | -5.90506 | 1618 ft | 202 kts | 277° |
| 2026-04-16 16:52 | 35.70598 | -5.92171 | 1609 ft | 193 kts | 277° |
| 2026-04-16 16:52 | 35.70804 | -5.93794 | 1591 ft | 196 kts | 278° |
| 2026-04-16 16:53 | 35.71016 | -5.95484 | 1629 ft | 201 kts | 278° |
| 2026-04-16 16:53 | 35.71227 | -5.97183 | 1588 ft | 199 kts | 278° |
| 2026-04-16 16:53 | 35.71432 | -5.98869 | 1611 ft | 198 kts | 277° |
| 2026-04-16 16:53 | 35.71646 | -6.00536 | 1582 ft | 196 kts | 278° |
| 2026-04-16 16:54 | 35.72189 | -6.02011 | 1601 ft | 199 kts | 322° |
| 2026-04-16 16:54 | 35.73406 | -6.02469 | 1506 ft | 176 kts | 19° |
| 2026-04-16 16:54 | 35.74258 | -6.01642 | 1603 ft | 147 kts | 70° |
| 2026-04-16 16:54 | 35.74335 | -6.00849 | 1418 ft | 142 kts | 105° |
| 2026-04-16 16:55 | 35.73852 | -5.99377 | 1063 ft | 138 kts | 106° |
| 2026-04-16 16:55 | 35.73743 | -5.98598 | 877 ft | 137 kts | 93° |
| 2026-04-16 16:55 | 35.73649 | -5.97418 | 678 ft | 140 kts | 93° |
| 2026-04-16 16:55 | 35.73484 | -5.95718 | 388 ft | 155 kts | 91° |
| 2026-04-16 16:56 | 35.73410 | -5.94826 | 259 ft | 154 kts | 92° |
| 2026-04-16 16:56 | 35.73295 | -5.93543 | 70 ft | 144 kts | 91° |
| 2026-04-16 16:56 | 35.73195 | -5.92435 | 58 ft | 112 kts | 96° |
| 2026-04-16 16:56 | 35.73123 | -5.91666 | 59 ft | 62 kts | 98° |
| 2026-04-16 16:57 | 35.73085 | -5.91269 | 56 ft | 40 kts | 97° |
| 2026-04-16 16:57 | 35.72945 | -5.90860 | 52 ft | 21 kts | 192° |
| 2026-04-16 16:57 | 35.72877 | -5.91000 | 56 ft | 21 kts | 279° |
| 2026-04-16 16:58 | 35.72896 | -5.91172 | 59 ft | 20 kts | 277° |
| 2026-04-16 16:58 | 35.72911 | -5.91340 | 59 ft | 19 kts | 277° |
| 2026-04-16 16:58 | 35.72926 | -5.91503 | 54 ft | 19 kts | 276° |
| 2026-04-16 16:58 | 35.72938 | -5.91660 | 59 ft | 18 kts | 267° |
| 2026-04-16 16:59 | 35.72840 | -5.91716 | 59 ft | 18 kts | 177° |
| 2026-04-16 16:59 | 35.72720 | -5.91705 | 59 ft | 17 kts | 175° |
| 2026-04-16 16:59 | 35.72604 | -5.91694 | 59 ft | 16 kts | 175° |
| 2026-04-16 16:59 | 35.72496 | -5.91677 | 57 ft | 16 kts | 157° |
| 2026-04-16 17:00 | 35.72431 | -5.91579 | 53 ft | 15 kts | 101° |
| 2026-04-16 17:00 | 35.72432 | -5.91449 | 59 ft | 15 kts | 85° |
| 2026-04-16 17:00 | 35.72441 | -5.91299 | 59 ft | 19 kts | 85° |
| 2026-04-16 17:00 | 35.72478 | -5.91246 | 59 ft | 7 kts | 360° |
| 2026-04-16 17:01 | 35.72519 | -5.91249 | 59 ft | 2 kts | 356° |
| 2026-04-16 17:01 | 35.72523 | -5.91249 | 59 ft | 0 kts | 356° |